Grand Princess — ZCBU5 — position and weather

sailwx.info

Track history (hours):
 
Tides and Currents Weather Stations Pressure Air Temp Water Temp Dewpoint Dewpoint Depression Visibility Wind Speed Wind Dir Waves Ship Positions

Grand Princess

Operator: Princess Cruises

Last reported at 2019-Jul-22 14:00 UTC. Time now 2019-Jul-22 14:03 UTC.
Position N 51°54' W 130°26'.

Length 289.5 m; beam 36 m; draft 8.5 m.

Type: Passenger vessel. MMSI: 310327000.

Date/timePositionNaut miles runAvg speedWind from/ knotsBaromVisibWave heightAir tempDewpointWater temp
2019-Jul-22 14:00N 51°54' W 130°26'1020.8
2019-Jul-22 13:30N 52°04' W 130°28'1020.4
2019-Jul-22 13:00N 52°14' W 130°31'1020.8
2019-Jul-22 12:31N 52°24' W 130°33'1121.4
2019-Jul-22 12:00N 52°35' W 130°36'1020.7
2019-Jul-22 11:30N 52°45' W 130°38'1020.7
2019-Jul-22 11:01N 52°55' W 130°41'1020.2
2019-Jul-22 10:30N 53°05' W 130°43'1020.1
2019-Jul-22 10:00N 53°15' W 130°45'1020.3
2019-Jul-22 09:30N 53°25' W 130°48'1020.2
2019-Jul-22 09:00N 53°35' W 130°51'1019.9
2019-Jul-22 08:30N 53°45' W 130°54'1020.3
2019-Jul-22 08:01N 53°55' W 130°58'1020.2
2019-Jul-22 07:30N 54°05' W 131°02'1020.1
2019-Jul-22 07:00N 54°15' W 131°02'1019.7
2019-Jul-22 06:30N 54°24' W 131°09'1019.1
2019-Jul-22 06:00N 54°33' W 131°15'918.4
2019-Jul-22 05:29N 54°42' W 131°11'919.5
2019-Jul-22 05:00N 54°51' W 131°07'241 8.9
2019-Jul-21 01:48N 58°09' W 135°17'720.6
2019-Jul-21 01:29N 58°13' W 135°27'1020.0
2019-Jul-21 01:01N 58°17' W 135°43'816.5
2019-Jul-21 00:30N 58°21' W 135°57'510.7
2019-Jul-21 00:01N 58°26' W 135°59'4 7.6
2019-Jul-20 23:30N 58°29' W 136°03'510.4
2019-Jul-20 23:00N 58°34' W 136°04'917.5
2019-Jul-20 22:30N 58°42' W 136°13'917.9
2019-Jul-20 21:59N 58°48' W 136°26'5 0.9
2019-Jul-20 16:38N 58°51' W 136°34'316.7
2019-Jul-20 16:27N 58°50' W 136°29'817.1
2019-Jul-20 16:00N 58°45' W 136°17'816.8
2019-Jul-20 15:30N 58°38' W 136°07'714.9
2019-Jul-20 15:00N 58°31' W 136°04'4 8.8
2019-Jul-20 14:30N 58°27' W 136°01'4 8.4
2019-Jul-20 14:00N 58°23' W 135°58'5 9.9
2019-Jul-20 13:30N 58°19' W 135°52'612.9
2019-Jul-20 13:00N 58°17' W 135°41'713.0
2019-Jul-20 12:29N 58°15' W 135°29'  
2019-Jul-18 02:38N 51°02' W 129°30'220.3
2019-Jul-18 02:30N 51°01' W 129°26'918.8
2019-Jul-18 02:00N 50°57' W 129°13'713.9
2019-Jul-18 01:31N 50°60' W 129°03'4 7.8
2019-Jul-18 01:00N 50°58' W 128°58'917.9
2019-Jul-18 00:30N 50°57' W 129°12'76318.4
2019-Jul-16 07:09N 38°47' W 124°01'319.3
2019-Jul-16 07:00N 38°45' W 123°59'918.7
2019-Jul-16 06:30N 38°38' W 123°51'918.6
2019-Jul-16 06:01N 38°31' W 123°43'1019.0
2019-Jul-16 05:30N 38°23' W 123°36'918.8
2019-Jul-16 05:01N 38°16' W 123°28'815.0
2019-Jul-16 04:30N 38°11' W 123°22'510.2
2019-Jul-16 04:01N 38°07' W 123°17'510.0
2019-Jul-16 03:31N 38°03' W 123°13'510.2
2019-Jul-16 03:01N 37°59' W 123°09'5 9.9
2019-Jul-16 02:31N 37°56' W 123°04'5 9.9
2019-Jul-16 02:01N 37°54' W 122°58'510.2
2019-Jul-16 01:31N 37°51' W 122°53'510.2
2019-Jul-16 01:01N 37°49' W 122°47'510.0
2019-Jul-16 00:31N 37°46' W 122°42'5 9.4
2019-Jul-16 00:00N 37°47' W 122°36'815.3
2019-Jul-15 23:30N 37°49' W 122°27'3 4.7
2019-Jul-15 22:57N 37°48' W 122°24'0 0.0
2019-Jul-15 22:27N 37°48' W 122°24'0 0.0
2019-Jul-15 21:57N 37°48' W 122°24'0 0.0
2019-Jul-15 21:27N 37°48' W 122°24'0 0.0
2019-Jul-15 20:57N 37°48' W 122°24'0 0.0
2019-Jul-15 20:31N 37°48' W 122°24'0 0.0
2019-Jul-15 19:58N 37°48' W 122°24'0 0.0
2019-Jul-15 19:28N 37°48' W 122°24'0 0.0
2019-Jul-15 18:58N 37°48' W 122°24'0 0.0
2019-Jul-15 18:28N 37°48' W 122°24'0 0.0
2019-Jul-15 17:58N 37°48' W 122°24'0 0.0
2019-Jul-15 17:28N 37°48' W 122°24'0 0.0
2019-Jul-15 16:58N 37°48' W 122°24'0 0.0
2019-Jul-15 16:28N 37°48' W 122°24'0 0.0
2019-Jul-15 15:58N 37°48' W 122°24'0 0.0
2019-Jul-15 15:28N 37°48' W 122°24'0 0.0
2019-Jul-15 14:58N 37°48' W 122°24'0 0.0
2019-Jul-15 14:28N 37°48' W 122°24'0 0.0
2019-Jul-15 13:58N 37°48' W 122°24'0 0.0
2019-Jul-15 13:31N 37°48' W 122°24'1 2.5
2019-Jul-15 13:01N 37°49' W 122°25'612.1
2019-Jul-15 12:30N 37°47' W 122°33'713.3
2019-Jul-15 12:00N 37°46' W 122°41'510.2
2019-Jul-15 11:30N 37°47' W 122°47'510.3
2019-Jul-15 11:00N 37°49' W 122°53'510.2
2019-Jul-15 10:30N 37°52' W 122°59'5 9.9
2019-Jul-15 10:00N 37°54' W 123°04'510.0
2019-Jul-15 09:30N 37°57' W 123°09'5 9.9
2019-Jul-15 09:00N 38°00' W 123°14'510.1
2019-Jul-15 08:30N 38°04' W 123°18'510.2
2019-Jul-15 08:00N 38°08' W 123°22'816.7
2019-Jul-15 07:30N 38°15' W 123°29'918.3
2019-Jul-15 07:00N 38°22' W 123°36'918.7
2019-Jul-15 06:30N 38°29' W 123°44'918.7
2019-Jul-15 06:00N 38°36' W 123°51'918.5
2019-Jul-15 05:30N 38°44' W 123°59'1119.4
2019-Jul-15 04:56N 38°52' W 124°08'819.9
2019-Jul-15 04:30N 38°59' W 124°15'15720.7
2019-Jul-14 20:55N 41°31' W 125°07'922.5
2019-Jul-14 20:30N 41°40' W 125°08'1122.4
2019-Jul-14 20:00N 41°51' W 125°09'1721.7
2019-Jul-14 19:13N 42°08' W 125°10'11521.7
2019-Jul-14 13:53N 44°04' W 125°17'921.8
2019-Jul-14 13:29N 44°13' W 125°18'1321.9
2019-Jul-14 12:54N 44°25' W 125°19'1021.7
2019-Jul-14 12:26N 44°35' W 125°19'1221.9
2019-Jul-14 11:54N 44°47' W 125°21'3622.0
2019-Jul-14 10:15N 45°23' W 125°25'922.0
2019-Jul-14 09:49N 45°33' W 125°26'721.9
2019-Jul-14 09:30N 45°40' W 125°26'2522.1
2019-Jul-14 08:21N 46°05' W 125°29'822.3
2019-Jul-14 08:00N 46°13' W 125°30'1122.3
2019-Jul-14 07:30N 46°24' W 125°31'1122.2
2019-Jul-14 06:59N 46°35' W 125°32'1122.1
2019-Jul-14 06:31N 46°46' W 125°33'1122.1
2019-Jul-14 06:00N 46°57' W 125°35'1222.0
2019-Jul-14 05:29N 47°08' W 125°36'6522.2
2019-Jul-14 02:34N 48°13' W 125°43'222.0
2019-Jul-14 02:30N 48°15' W 125°43'1121.4
2019-Jul-14 02:00N 48°21' W 125°31'1121.8
2019-Jul-14 01:30N 48°27' W 125°17'1121.3
2019-Jul-14 01:00N 48°31' W 125°02'1122.4
2019-Jul-14 00:30N 48°31' W 124°45'1122.0
2019-Jul-14 00:00N 48°27' W 124°30'1121.7
2019-Jul-13 23:30N 48°23' W 124°15'1020.4
2019-Jul-13 23:00N 48°19' W 124°01'1220.0
2019-Jul-13 22:25N 48°16' W 123°43'717.5
2019-Jul-13 22:00N 48°16' W 123°32'612.9
2019-Jul-13 21:31N 48°21' W 123°26'4 8.7
2019-Jul-13 21:01N 48°25' W 123°24'0 0.2
2019-Jul-13 20:29N 48°25' W 123°24'0 0.0
2019-Jul-13 19:59N 48°25' W 123°24'0 0.0
2019-Jul-13 19:29N 48°25' W 123°24'0 0.0
2019-Jul-13 18:59N 48°25' W 123°24'0 0.0
2019-Jul-13 18:29N 48°25' W 123°24'0 0.0
2019-Jul-13 17:59N 48°25' W 123°24'0 0.0
2019-Jul-13 17:29N 48°25' W 123°24'0 0.0
2019-Jul-13 16:59N 48°25' W 123°24'0 0.0
2019-Jul-13 16:29N 48°25' W 123°24'0 0.0
2019-Jul-13 15:59N 48°25' W 123°24'0 0.0
2019-Jul-13 15:29N 48°25' W 123°24'0 0.0
2019-Jul-13 14:59N 48°25' W 123°24'0 0.0
2019-Jul-13 14:29N 48°25' W 123°24'0 0.0
2019-Jul-13 13:59N 48°25' W 123°24'1 2.5
2019-Jul-13 13:30N 48°24' W 123°25'510.6
2019-Jul-13 13:00N 48°19' W 123°25'612.5
2019-Jul-13 12:31N 48°14' W 123°30'714.7
2019-Jul-13 12:00N 48°13' W 123°41'816.6
2019-Jul-13 11:31N 48°13' W 123°54'816.5
2019-Jul-13 11:01N 48°17' W 124°05'816.9
2019-Jul-13 10:30N 48°21' W 124°16'917.0
2019-Jul-13 10:00N 48°24' W 124°28'815.2
2019-Jul-13 09:31N 48°27' W 124°39'713.9
2019-Jul-13 09:01N 48°28' W 124°49'714.2
2019-Jul-13 08:30N 48°29' W 124°60'714.0
2019-Jul-13 08:00N 48°29' W 125°10'816.4
2019-Jul-13 07:30N 48°32' W 125°22'917.1
2019-Jul-13 07:00N 48°37' W 125°32'816.6
2019-Jul-13 06:30N 48°42' W 125°42'816.9
2019-Jul-13 06:00N 48°47' W 125°52'917.0
2019-Jul-13 05:30N 48°52' W 126°03'1020.4
2019-Jul-13 05:00N 48°57' W 126°16'1020.9
2019-Jul-13 04:30N 49°04' W 126°29'1120.8
2019-Jul-13 03:59N 49°10' W 126°42'  
Track history (hours):
 
Tides and Currents Weather Stations Pressure Air Temp Water Temp Dewpoint Dewpoint Depression Visibility Wind Speed Wind Dir Waves Ship Positions

Grand Princess

Operator: Princess Cruises

Last reported at 2019-Jul-22 14:00 UTC. Time now 2019-Jul-22 14:03 UTC.
Position N 51°54' W 130°26'.

Length 289.5 m; beam 36 m; draft 8.5 m.

Type: Passenger vessel. MMSI: 310327000.

Date/timePositionNaut miles runAvg speedWind from/ knotsBaromVisibWave heightAir tempDewpointWater temp
2019-Jul-22 14:00N 51°54' W 130°26'1020.8
2019-Jul-22 13:30N 52°04' W 130°28'1020.4
2019-Jul-22 13:00N 52°14' W 130°31'1020.8
2019-Jul-22 12:31N 52°24' W 130°33'1121.4
2019-Jul-22 12:00N 52°35' W 130°36'1020.7
2019-Jul-22 11:30N 52°45' W 130°38'1020.7
2019-Jul-22 11:01N 52°55' W 130°41'1020.2
2019-Jul-22 10:30N 53°05' W 130°43'1020.1
2019-Jul-22 10:00N 53°15' W 130°45'1020.3
2019-Jul-22 09:30N 53°25' W 130°48'1020.2
2019-Jul-22 09:00N 53°35' W 130°51'1019.9
2019-Jul-22 08:30N 53°45' W 130°54'1020.3
2019-Jul-22 08:01N 53°55' W 130°58'1020.2
2019-Jul-22 07:30N 54°05' W 131°02'1020.1
2019-Jul-22 07:00N 54°15' W 131°02'1019.7
2019-Jul-22 06:30N 54°24' W 131°09'1019.1
2019-Jul-22 06:00N 54°33' W 131°15'918.4
2019-Jul-22 05:29N 54°42' W 131°11'919.5
2019-Jul-22 05:00N 54°51' W 131°07'241 8.9
2019-Jul-21 01:48N 58°09' W 135°17'720.6
2019-Jul-21 01:29N 58°13' W 135°27'1020.0
2019-Jul-21 01:01N 58°17' W 135°43'816.5
2019-Jul-21 00:30N 58°21' W 135°57'510.7
2019-Jul-21 00:01N 58°26' W 135°59'4 7.6
2019-Jul-20 23:30N 58°29' W 136°03'510.4
2019-Jul-20 23:00N 58°34' W 136°04'917.5
2019-Jul-20 22:30N 58°42' W 136°13'917.9
2019-Jul-20 21:59N 58°48' W 136°26'5 0.9
2019-Jul-20 16:38N 58°51' W 136°34'316.7
2019-Jul-20 16:27N 58°50' W 136°29'817.1
2019-Jul-20 16:00N 58°45' W 136°17'816.8
2019-Jul-20 15:30N 58°38' W 136°07'714.9
2019-Jul-20 15:00N 58°31' W 136°04'4 8.8
2019-Jul-20 14:30N 58°27' W 136°01'4 8.4
2019-Jul-20 14:00N 58°23' W 135°58'5 9.9
2019-Jul-20 13:30N 58°19' W 135°52'612.9
2019-Jul-20 13:00N 58°17' W 135°41'713.0
2019-Jul-20 12:29N 58°15' W 135°29'  
2019-Jul-18 02:38N 51°02' W 129°30'220.3
2019-Jul-18 02:30N 51°01' W 129°26'918.8
2019-Jul-18 02:00N 50°57' W 129°13'713.9
2019-Jul-18 01:31N 50°60' W 129°03'4 7.8
2019-Jul-18 01:00N 50°58' W 128°58'917.9
2019-Jul-18 00:30N 50°57' W 129°12'76318.4
2019-Jul-16 07:09N 38°47' W 124°01'319.3
2019-Jul-16 07:00N 38°45' W 123°59'918.7
2019-Jul-16 06:30N 38°38' W 123°51'918.6
2019-Jul-16 06:01N 38°31' W 123°43'1019.0
2019-Jul-16 05:30N 38°23' W 123°36'918.8
2019-Jul-16 05:01N 38°16' W 123°28'815.0
2019-Jul-16 04:30N 38°11' W 123°22'510.2
2019-Jul-16 04:01N 38°07' W 123°17'510.0
2019-Jul-16 03:31N 38°03' W 123°13'510.2
2019-Jul-16 03:01N 37°59' W 123°09'5 9.9
2019-Jul-16 02:31N 37°56' W 123°04'5 9.9
2019-Jul-16 02:01N 37°54' W 122°58'510.2
2019-Jul-16 01:31N 37°51' W 122°53'510.2
2019-Jul-16 01:01N 37°49' W 122°47'510.0
2019-Jul-16 00:31N 37°46' W 122°42'5 9.4
2019-Jul-16 00:00N 37°47' W 122°36'815.3
2019-Jul-15 23:30N 37°49' W 122°27'3 4.7
2019-Jul-15 22:57N 37°48' W 122°24'0 0.0
2019-Jul-15 22:27N 37°48' W 122°24'0 0.0
2019-Jul-15 21:57N 37°48' W 122°24'0 0.0
2019-Jul-15 21:27N 37°48' W 122°24'0 0.0
2019-Jul-15 20:57N 37°48' W 122°24'0 0.0
2019-Jul-15 20:31N 37°48' W 122°24'0 0.0
2019-Jul-15 19:58N 37°48' W 122°24'0 0.0
2019-Jul-15 19:28N 37°48' W 122°24'0 0.0
2019-Jul-15 18:58N 37°48' W 122°24'0 0.0
2019-Jul-15 18:28N 37°48' W 122°24'0 0.0
2019-Jul-15 17:58N 37°48' W 122°24'0 0.0
2019-Jul-15 17:28N 37°48' W 122°24'0 0.0
2019-Jul-15 16:58N 37°48' W 122°24'0 0.0
2019-Jul-15 16:28N 37°48' W 122°24'0 0.0
2019-Jul-15 15:58N 37°48' W 122°24'0 0.0
2019-Jul-15 15:28N 37°48' W 122°24'0 0.0
2019-Jul-15 14:58N 37°48' W 122°24'0 0.0
2019-Jul-15 14:28N 37°48' W 122°24'0 0.0
2019-Jul-15 13:58N 37°48' W 122°24'0 0.0
2019-Jul-15 13:31N 37°48' W 122°24'1 2.5
2019-Jul-15 13:01N 37°49' W 122°25'612.1
2019-Jul-15 12:30N 37°47' W 122°33'713.3
2019-Jul-15 12:00N 37°46' W 122°41'510.2
2019-Jul-15 11:30N 37°47' W 122°47'510.3
2019-Jul-15 11:00N 37°49' W 122°53'510.2
2019-Jul-15 10:30N 37°52' W 122°59'5 9.9
2019-Jul-15 10:00N 37°54' W 123°04'510.0
2019-Jul-15 09:30N 37°57' W 123°09'5 9.9
2019-Jul-15 09:00N 38°00' W 123°14'510.1
2019-Jul-15 08:30N 38°04' W 123°18'510.2
2019-Jul-15 08:00N 38°08' W 123°22'816.7
2019-Jul-15 07:30N 38°15' W 123°29'918.3
2019-Jul-15 07:00N 38°22' W 123°36'918.7
2019-Jul-15 06:30N 38°29' W 123°44'918.7
2019-Jul-15 06:00N 38°36' W 123°51'918.5
2019-Jul-15 05:30N 38°44' W 123°59'1119.4
2019-Jul-15 04:56N 38°52' W 124°08'819.9
2019-Jul-15 04:30N 38°59' W 124°15'15720.7
2019-Jul-14 20:55N 41°31' W 125°07'922.5
2019-Jul-14 20:30N 41°40' W 125°08'1122.4
2019-Jul-14 20:00N 41°51' W 125°09'1721.7
2019-Jul-14 19:13N 42°08' W 125°10'11521.7
2019-Jul-14 13:53N 44°04' W 125°17'921.8
2019-Jul-14 13:29N 44°13' W 125°18'1321.9
2019-Jul-14 12:54N 44°25' W 125°19'1021.7
2019-Jul-14 12:26N 44°35' W 125°19'1221.9
2019-Jul-14 11:54N 44°47' W 125°21'3622.0
2019-Jul-14 10:15N 45°23' W 125°25'922.0
2019-Jul-14 09:49N 45°33' W 125°26'721.9
2019-Jul-14 09:30N 45°40' W 125°26'2522.1
2019-Jul-14 08:21N 46°05' W 125°29'822.3
2019-Jul-14 08:00N 46°13' W 125°30'1122.3
2019-Jul-14 07:30N 46°24' W 125°31'1122.2
2019-Jul-14 06:59N 46°35' W 125°32'1122.1
2019-Jul-14 06:31N 46°46' W 125°33'1122.1
2019-Jul-14 06:00N 46°57' W 125°35'1222.0
2019-Jul-14 05:29N 47°08' W 125°36'6522.2
2019-Jul-14 02:34N 48°13' W 125°43'222.0
2019-Jul-14 02:30N 48°15' W 125°43'1121.4
2019-Jul-14 02:00N 48°21' W 125°31'1121.8
2019-Jul-14 01:30N 48°27' W 125°17'1121.3
2019-Jul-14 01:00N 48°31' W 125°02'1122.4
2019-Jul-14 00:30N 48°31' W 124°45'1122.0
2019-Jul-14 00:00N 48°27' W 124°30'1121.7
2019-Jul-13 23:30N 48°23' W 124°15'1020.4
2019-Jul-13 23:00N 48°19' W 124°01'1220.0
2019-Jul-13 22:25N 48°16' W 123°43'717.5
2019-Jul-13 22:00N 48°16' W 123°32'612.9
2019-Jul-13 21:31N 48°21' W 123°26'4 8.7
2019-Jul-13 21:01N 48°25' W 123°24'0 0.2
2019-Jul-13 20:29N 48°25' W 123°24'0 0.0
2019-Jul-13 19:59N 48°25' W 123°24'0 0.0
2019-Jul-13 19:29N 48°25' W 123°24'0 0.0
2019-Jul-13 18:59N 48°25' W 123°24'0 0.0
2019-Jul-13 18:29N 48°25' W 123°24'0 0.0
2019-Jul-13 17:59N 48°25' W 123°24'0 0.0
2019-Jul-13 17:29N 48°25' W 123°24'0 0.0
2019-Jul-13 16:59N 48°25' W 123°24'0 0.0
2019-Jul-13 16:29N 48°25' W 123°24'0 0.0
2019-Jul-13 15:59N 48°25' W 123°24'0 0.0
2019-Jul-13 15:29N 48°25' W 123°24'0 0.0
2019-Jul-13 14:59N 48°25' W 123°24'0 0.0
2019-Jul-13 14:29N 48°25' W 123°24'0 0.0
2019-Jul-13 13:59N 48°25' W 123°24'1 2.5
2019-Jul-13 13:30N 48°24' W 123°25'510.6
2019-Jul-13 13:00N 48°19' W 123°25'612.5
2019-Jul-13 12:31N 48°14' W 123°30'714.7
2019-Jul-13 12:00N 48°13' W 123°41'816.6
2019-Jul-13 11:31N 48°13' W 123°54'816.5
2019-Jul-13 11:01N 48°17' W 124°05'816.9
2019-Jul-13 10:30N 48°21' W 124°16'917.0
2019-Jul-13 10:00N 48°24' W 124°28'815.2
2019-Jul-13 09:31N 48°27' W 124°39'713.9
2019-Jul-13 09:01N 48°28' W 124°49'714.2
2019-Jul-13 08:30N 48°29' W 124°60'714.0
2019-Jul-13 08:00N 48°29' W 125°10'816.4
2019-Jul-13 07:30N 48°32' W 125°22'917.1
2019-Jul-13 07:00N 48°37' W 125°32'816.6
2019-Jul-13 06:30N 48°42' W 125°42'816.9
2019-Jul-13 06:00N 48°47' W 125°52'917.0
2019-Jul-13 05:30N 48°52' W 126°03'1020.4
2019-Jul-13 05:00N 48°57' W 126°16'1020.9
2019-Jul-13 04:30N 49°04' W 126°29'1120.8
2019-Jul-13 03:59N 49°10' W 126°42'  

Dump ship's entire track history